Time;durP1;ratioP1;P1;durP2;ratioP2;P2;SDS_P1;SDS_P2;PMS_P1;PMS_P2;Temp;Humidity;BMP_temperature;BMP_pressure;BME280_temperature;BME280_humidity;BME280_pressure;Samples;Min_cycle;Max_cycle;Signal;HPM_P1;HPM_P2
2022/04/15 00:02:03;;;;;;;;;1.75;1.75;16.20;99.90;;;;;;5085342;28;10243;-40
2022/04/15 00:04:34;;;;;;;;;0.00;0.00;16.20;99.90;;;;;;5079551;28;11113;-48
2022/04/15 00:07:04;;;;;;;;;1.00;1.00;16.20;99.90;;;;;;5091496;28;10452;-50
2022/04/15 00:09:35;;;;;;;;;1.00;1.00;16.10;99.90;;;;;;5076419;28;10368;-39
2022/04/15 00:12:10;;;;;;;;;1.00;1.00;16.10;99.90;;;;;;5079654;28;10390;-40
2022/04/15 00:14:40;;;;;;;;;1.00;1.00;16.10;99.90;;;;;;5080081;28;10339;-41
2022/04/15 00:17:14;;;;;;;;;1.00;1.00;16.10;99.90;;;;;;5076117;28;10346;-39
2022/04/15 00:19:46;;;;;;;;;1.00;0.00;16.20;99.90;;;;;;5072349;28;10871;-48
2022/04/15 00:22:17;;;;;;;;;1.00;1.00;16.20;99.90;;;;;;5085863;28;10292;-47
2022/04/15 00:24:48;;;;;;;;;1.25;1.25;16.10;99.90;;;;;;5084543;28;10154;-50
2022/04/15 00:27:19;;;;;;;;;1.50;1.00;16.10;99.90;;;;;;5077496;28;10335;-48
2022/04/15 00:29:49;;;;;;;;;1.00;1.00;16.10;99.90;;;;;;5070831;28;10348;-41
2022/04/15 00:32:19;;;;;;;;;1.00;1.00;16.10;99.90;;;;;;5089833;28;10277;-40
2022/04/15 00:34:50;;;;;;;;;0.25;0.25;16.10;99.90;;;;;;5082318;28;10421;-40
2022/04/15 00:37:21;;;;;;;;;1.00;1.00;16.10;99.90;;;;;;5078006;28;10283;-39
2022/04/15 00:39:53;;;;;;;;;1.00;1.00;16.10;99.90;;;;;;5088659;28;11170;-49
2022/04/15 00:42:24;;;;;;;;;1.00;1.00;16.10;99.90;;;;;;5072229;28;11300;-52
2022/04/15 00:44:59;;;;;;;;;2.00;2.00;16.10;99.90;;;;;;5077449;28;10507;-50
2022/04/15 00:47:42;;;;;;;;;1.00;1.00;16.10;99.90;;;;;;5079620;27;10381;-50
2022/04/15 00:50:12;;;;;;;;;1.00;1.00;16.10;99.90;;;;;;5077221;28;10580;-48
2022/04/15 00:52:46;;;;;;;;;0.00;0.00;16.10;99.90;;;;;;5077225;28;10443;-39
2022/04/15 00:55:20;;;;;;;;;1.00;1.00;16.10;99.90;;;;;;5083616;28;10354;-39
2022/04/15 00:57:55;;;;;;;;;1.00;1.00;16.10;99.90;;;;;;5079884;28;10518;-41
2022/04/15 01:00:28;;;;;;;;;1.00;1.00;16.10;99.90;;;;;;5078849;28;10550;-40
2022/04/15 01:03:01;;;;;;;;;1.50;1.50;16.10;99.90;;;;;;5084385;28;10410;-48
2022/04/15 01:05:32;;;;;;;;;1.00;1.00;16.00;99.90;;;;;;5090899;28;10577;-54
2022/04/15 01:08:04;;;;;;;;;0.75;0.75;16.10;99.90;;;;;;5081807;28;10401;-49
2022/04/15 01:10:39;;;;;;;;;2.00;0.75;16.10;99.90;;;;;;5079222;28;10488;-50
2022/04/15 01:13:13;;;;;;;;;1.25;0.00;16.10;99.90;;;;;;5078314;28;10511;-51
2022/04/15 01:15:56;;;;;;;;;1.00;1.00;16.10;99.90;;;;;;5085350;28;10392;-50
2022/04/15 01:18:26;;;;;;;;;0.50;0.50;16.00;99.90;;;;;;5078138;28;11149;-47
2022/04/15 01:20:57;;;;;;;;;2.00;2.00;16.00;99.90;;;;;;5085033;28;10267;-55
2022/04/15 01:23:28;;;;;;;;;1.00;1.00;16.00;99.90;;;;;;5086452;28;10503;-40
2022/04/15 01:25:59;;;;;;;;;0.25;0.25;16.00;99.90;;;;;;5078656;28;10625;-40
2022/04/15 01:28:29;;;;;;;;;1.00;1.00;16.00;99.90;;;;;;5073227;28;10461;-48
2022/04/15 01:31:00;;;;;;;;;1.00;1.00;16.00;99.90;;;;;;5075855;28;10339;-47
2022/04/15 01:33:30;;;;;;;;;1.00;1.00;15.90;99.90;;;;;;5092880;28;10586;-49
2022/04/15 01:36:00;;;;;;;;;1.00;1.00;16.00;99.90;;;;;;5076748;28;10402;-50
2022/04/15 01:38:31;;;;;;;;;1.00;1.00;16.00;99.90;;;;;;5080521;28;10384;-48
2022/04/15 01:41:01;;;;;;;;;1.00;1.00;16.00;99.90;;;;;;5076794;28;10489;-49
2022/04/15 01:43:32;;;;;;;;;2.50;1.00;16.00;99.90;;;;;;5080955;28;10444;-40
2022/04/15 01:46:04;;;;;;;;;1.00;1.00;16.00;99.90;;;;;;5075426;28;10485;-40
2022/04/15 01:48:34;;;;;;;;;1.00;1.00;16.10;99.90;;;;;;5069419;28;10413;-49
2022/04/15 01:51:03;;;;;;;;;1.00;1.00;16.00;99.90;;;;;;5074956;28;10421;-50
2022/04/15 01:53:34;;;;;;;;;1.25;1.25;16.10;99.90;;;;;;5072899;28;10534;-40
2022/04/15 01:56:05;;;;;;;;;5.50;5.50;16.00;99.90;;;;;;5077266;28;11087;-41
2022/04/15 01:58:35;;;;;;;;;12.25;12.25;16.10;99.90;;;;;;5089059;28;10814;-40
2022/04/15 02:01:08;;;;;;;;;17.75;17.75;16.00;99.90;;;;;;5084289;28;11084;-39
2022/04/15 02:03:39;;;;;;;;;4.50;4.50;16.00;99.90;;;;;;5091613;28;11464;-39
2022/04/15 02:06:10;;;;;;;;;1.00;1.00;16.00;99.90;;;;;;5087458;28;10750;-40
2022/04/15 02:08:42;;;;;;;;;1.00;1.00;16.00;99.90;;;;;;5072098;28;10578;-39
2022/04/15 02:11:13;;;;;;;;;1.00;1.00;16.00;99.90;;;;;;5075360;28;10551;-39
2022/04/15 02:13:44;;;;;;;;;1.00;1.00;16.00;99.90;;;;;;5080172;28;10408;-52
2022/04/15 02:16:14;;;;;;;;;1.50;1.50;16.00;99.90;;;;;;5075150;28;10428;-48
2022/04/15 02:18:45;;;;;;;;;1.00;1.00;16.00;99.90;;;;;;5074596;28;10421;-52
2022/04/15 02:21:15;;;;;;;;;1.00;1.00;16.00;99.90;;;;;;5090247;28;10312;-52
2022/04/15 02:23:47;;;;;;;;;1.00;1.00;16.00;99.90;;;;;;5079593;28;11142;-39
2022/04/15 02:26:17;;;;;;;;;2.00;2.00;16.00;99.90;;;;;;5090363;28;10421;-39
2022/04/15 02:28:48;;;;;;;;;2.00;2.00;16.00;99.90;;;;;;5082552;28;10517;-40
2022/04/15 02:31:20;;;;;;;;;1.00;1.00;16.00;99.90;;;;;;5079004;28;10161;-39
2022/04/15 02:33:51;;;;;;;;;0.75;0.75;16.00;99.90;;;;;;5078193;28;10472;-51
2022/04/15 02:36:21;;;;;;;;;0.00;0.00;16.00;99.90;;;;;;5080380;28;10345;-52
2022/04/15 02:38:54;;;;;;;;;1.75;1.75;16.00;99.90;;;;;;5084569;28;10432;-39
2022/04/15 02:41:23;;;;;;;;;1.25;1.25;16.00;99.90;;;;;;5077404;28;10516;-39
2022/04/15 02:43:55;;;;;;;;;1.00;1.00;15.90;99.90;;;;;;5076529;28;10329;-39
2022/04/15 02:46:27;;;;;;;;;1.00;1.00;15.90;99.90;;;;;;5080892;28;10855;-40
2022/04/15 02:48:58;;;;;;;;;0.00;0.00;16.00;99.90;;;;;;5071704;28;10450;-41
2022/04/15 02:51:28;;;;;;;;;1.00;1.00;15.90;99.90;;;;;;5089270;28;10455;-38
2022/04/15 02:53:58;;;;;;;;;1.00;1.00;15.90;99.90;;;;;;5085119;28;10407;-39
2022/04/15 02:56:29;;;;;;;;;0.00;0.00;15.90;99.90;;;;;;5079976;28;10656;-40
2022/04/15 02:59:00;;;;;;;;;2.25;2.00;15.90;99.90;;;;;;5074643;28;10510;-52
2022/04/15 03:01:30;;;;;;;;;2.00;2.00;15.90;99.90;;;;;;5081237;28;11399;-48
2022/04/15 03:04:01;;;;;;;;;3.00;3.00;15.90;99.90;;;;;;5081137;28;10586;-40
2022/04/15 03:06:31;;;;;;;;;5.25;3.75;15.90;99.90;;;;;;5077733;28;10759;-40
2022/04/15 03:09:01;;;;;;;;;4.25;4.25;15.90;99.90;;;;;;5080291;28;10747;-40
2022/04/15 03:11:32;;;;;;;;;5.00;5.00;15.90;99.90;;;;;;5081668;28;10623;-39
2022/04/15 03:14:03;;;;;;;;;2.00;2.00;15.90;99.90;;;;;;5085302;28;10871;-49
2022/04/15 03:16:34;;;;;;;;;4.00;3.00;15.90;99.90;;;;;;5080526;28;10733;-50
2022/04/15 03:19:05;;;;;;;;;3.00;3.00;15.90;99.90;;;;;;5076600;28;10721;-52
2022/04/15 03:21:37;;;;;;;;;5.75;4.00;15.90;99.90;;;;;;5077012;28;10816;-50
2022/04/15 03:24:07;;;;;;;;;3.00;3.00;15.90;99.90;;;;;;5075876;28;10739;-40
2022/04/15 03:26:37;;;;;;;;;4.00;4.00;15.90;99.90;;;;;;5074346;28;10861;-40
2022/04/15 03:29:11;;;;;;;;;3.00;3.00;15.90;99.90;;;;;;5086694;28;10901;-51
2022/04/15 03:31:41;;;;;;;;;4.00;4.00;15.80;99.90;;;;;;5081365;28;10736;-50
2022/04/15 03:34:14;;;;;;;;;3.25;3.25;15.80;99.90;;;;;;5074659;28;10729;-48
2022/04/15 03:36:46;;;;;;;;;4.75;4.75;15.80;99.90;;;;;;5077879;28;10590;-48
2022/04/15 03:39:16;;;;;;;;;3.00;3.00;15.80;99.90;;;;;;5074744;28;10896;-40
2022/04/15 03:41:47;;;;;;;;;4.00;4.00;15.80;99.90;;;;;;5074041;28;10871;-40
2022/04/15 03:44:18;;;;;;;;;3.00;3.00;15.80;99.90;;;;;;5088965;28;10788;-47
2022/04/15 03:46:49;;;;;;;;;4.00;4.00;15.80;99.90;;;;;;5085814;28;10683;-50
2022/04/15 03:49:19;;;;;;;;;7.25;5.25;15.70;99.90;;;;;;5073900;28;11421;-51
2022/04/15 03:51:58;;;;;;;;;2.00;2.00;15.70;99.90;;;;;;5070095;28;11548;-47
2022/04/15 03:54:29;;;;;;;;;6.25;6.00;15.80;99.90;;;;;;5088468;28;10728;-41
2022/04/15 03:57:00;;;;;;;;;4.00;2.25;15.80;99.90;;;;;;5076881;28;10659;-41
2022/04/15 03:59:30;;;;;;;;;3.00;3.00;15.80;99.90;;;;;;5080391;28;11360;-48
2022/04/15 04:02:01;;;;;;;;;4.00;4.00;15.70;99.90;;;;;;5079229;28;10741;-48
2022/04/15 04:04:31;;;;;;;;;5.00;5.00;15.70;99.90;;;;;;5085991;28;10822;-41
2022/04/15 04:07:04;;;;;;;;;4.00;4.00;15.70;99.90;;;;;;5072064;28;11548;-41
2022/04/15 04:09:34;;;;;;;;;5.00;5.00;15.70;99.90;;;;;;5074023;28;10920;-46
2022/04/15 04:12:04;;;;;;;;;1.00;1.00;15.70;99.90;;;;;;5077212;28;10649;-47
2022/04/15 04:14:36;;;;;;;;;3.00;2.50;15.70;99.90;;;;;;5082399;28;10622;-40
2022/04/15 04:17:07;;;;;;;;;5.50;5.50;15.70;99.90;;;;;;5077533;28;10712;-41
2022/04/15 04:19:38;;;;;;;;;6.00;6.00;15.70;99.90;;;;;;5083064;28;10915;-39
2022/04/15 04:22:08;;;;;;;;;6.75;4.00;15.70;99.90;;;;;;5081399;28;11623;-40
2022/04/15 04:24:41;;;;;;;;;4.00;4.00;15.70;99.90;;;;;;5088470;28;10816;-48
2022/04/15 04:27:12;;;;;;;;;6.25;4.50;15.70;99.90;;;;;;5085269;28;10976;-48
2022/04/15 04:29:43;;;;;;;;;6.50;5.00;15.70;99.90;;;;;;5079314;28;10833;-50
2022/04/15 04:32:15;;;;;;;;;4.25;4.25;15.70;99.90;;;;;;5084265;28;10864;-50
2022/04/15 04:34:46;;;;;;;;;4.75;4.75;15.60;99.90;;;;;;5077050;28;10841;-51
2022/04/15 04:37:17;;;;;;;;;5.25;5.25;15.60;99.90;;;;;;5083081;28;11446;-52
2022/04/15 04:39:48;;;;;;;;;3.00;3.00;15.60;99.90;;;;;;5082926;28;10992;-48
2022/04/15 04:42:21;;;;;;;;;6.00;4.25;15.60;99.90;;;;;;5080194;28;11036;-47
2022/04/15 04:44:53;;;;;;;;;3.00;3.00;15.60;99.90;;;;;;5082644;28;10949;-40
2022/04/15 04:47:23;;;;;;;;;4.00;4.00;15.60;99.90;;;;;;5072811;28;10846;-40
2022/04/15 04:49:55;;;;;;;;;3.00;3.00;15.60;99.90;;;;;;5080907;28;10941;-40
2022/04/15 04:52:25;;;;;;;;;5.00;3.75;15.60;99.90;;;;;;5082413;28;11191;-40
2022/04/15 04:54:58;;;;;;;;;4.00;4.00;15.60;99.90;;;;;;5087167;28;10818;-52
2022/04/15 04:57:30;;;;;;;;;3.75;3.75;15.50;99.90;;;;;;5074967;28;11512;-51
2022/04/15 05:00:01;;;;;;;;;3.50;3.50;15.60;99.90;;;;;;5079371;28;10982;-41
2022/04/15 05:02:34;;;;;;;;;2.75;2.75;15.60;99.90;;;;;;5081220;28;10953;-41
2022/04/15 05:05:06;;;;;;;;;2.00;2.00;15.50;99.90;;;;;;5085111;28;11499;-47
2022/04/15 05:07:37;;;;;;;;;3.00;3.00;15.50;99.90;;;;;;5088542;28;10787;-50
2022/04/15 05:10:11;;;;;;;;;3.75;3.75;15.50;99.90;;;;;;5087744;28;10783;-51
2022/04/15 05:12:41;;;;;;;;;3.50;3.50;15.50;99.90;;;;;;5068939;28;10823;-48
2022/04/15 05:15:12;;;;;;;;;3.00;3.00;15.50;99.90;;;;;;5082279;28;10803;-50
2022/04/15 05:17:43;;;;;;;;;3.00;3.00;15.50;99.90;;;;;;5083105;28;10869;-41
2022/04/15 05:20:14;;;;;;;;;2.00;2.00;15.50;99.90;;;;;;5082953;28;10750;-40
2022/04/15 05:22:45;;;;;;;;;1.00;1.00;15.50;99.90;;;;;;5079847;28;10803;-49
2022/04/15 05:25:14;;;;;;;;;3.25;3.25;15.50;99.90;;;;;;5078820;28;10847;-50
2022/04/15 05:27:46;;;;;;;;;2.00;2.00;15.50;99.90;;;;;;5077866;28;11588;-50
2022/04/15 05:30:17;;;;;;;;;2.50;2.50;15.50;99.90;;;;;;5071801;28;10743;-51
2022/04/15 05:32:48;;;;;;;;;2.00;2.00;15.50;99.90;;;;;;5077427;28;10840;-40
2022/04/15 05:35:17;;;;;;;;;2.00;2.00;15.50;99.90;;;;;;5083552;28;11593;-41
2022/04/15 05:37:51;;;;;;;;;2.50;2.50;15.50;99.90;;;;;;5083620;28;10855;-41
2022/04/15 05:40:22;;;;;;;;;2.00;2.00;15.50;99.90;;;;;;5079920;28;11715;-40
2022/04/15 05:42:53;;;;;;;;;2.50;2.50;15.50;99.90;;;;;;5086225;28;10651;-48
2022/04/15 05:45:23;;;;;;;;;2.00;2.00;15.50;99.90;;;;;;5080633;28;10808;-49
2022/04/15 05:47:57;;;;;;;;;4.00;2.75;15.50;99.90;;;;;;5079216;28;10629;-41
2022/04/15 05:50:28;;;;;;;;;1.50;1.50;15.50;99.90;;;;;;5087053;28;10827;-40
2022/04/15 05:52:59;;;;;;;;;3.00;3.00;15.50;99.90;;;;;;5080989;28;10620;-51
2022/04/15 05:55:30;;;;;;;;;1.75;1.75;15.50;99.90;;;;;;5077987;28;11444;-51
2022/04/15 05:58:00;;;;;;;;;0.25;0.25;15.40;99.90;;;;;;5084642;28;10724;-50
2022/04/15 06:00:32;;;;;;;;;2.00;2.00;15.40;99.90;;;;;;5076748;28;10754;-50
2022/04/15 06:03:02;;;;;;;;;2.75;2.75;15.40;99.90;;;;;;5078847;28;10906;-50
2022/04/15 06:05:34;;;;;;;;;2.25;2.25;15.40;99.90;;;;;;5075866;28;11351;-50
2022/04/15 06:08:04;;;;;;;;;1.00;1.00;15.40;99.90;;;;;;5079289;28;10845;-42
2022/04/15 06:10:35;;;;;;;;;1.00;1.00;15.40;99.90;;;;;;5081753;28;10653;-41
2022/04/15 06:13:09;;;;;;;;;0.75;0.75;15.40;99.90;;;;;;5086597;28;10558;-51
2022/04/15 06:15:51;;;;;;;;;1.75;1.75;15.40;99.90;;;;;;5081904;28;10588;-52
2022/04/15 06:18:23;;;;;;;;;2.00;2.00;15.40;99.90;;;;;;5077452;28;10848;-53
2022/04/15 06:20:54;;;;;;;;;2.00;2.00;15.40;99.90;;;;;;5075611;28;10766;-51
2022/04/15 06:23:24;;;;;;;;;1.25;1.25;15.40;99.90;;;;;;5081030;28;10806;-52
2022/04/15 06:25:55;;;;;;;;;4.50;1.75;15.40;99.90;;;;;;5078877;28;11526;-51
2022/04/15 06:28:25;;;;;;;;;2.00;2.00;15.40;99.90;;;;;;5082090;28;11491;-52
2022/04/15 06:30:57;;;;;;;;;2.00;2.00;15.40;99.90;;;;;;5080539;28;10703;-52
2022/04/15 06:33:27;;;;;;;;;2.00;2.00;15.40;99.90;;;;;;5086861;28;10893;-50
2022/04/15 06:36:02;;;;;;;;;2.00;2.00;15.40;99.90;;;;;;5081347;28;11570;-50
2022/04/15 06:38:31;;;;;;;;;2.25;2.25;15.40;99.90;;;;;;5083813;28;10879;-53
2022/04/15 06:41:02;;;;;;;;;1.00;1.00;15.40;99.90;;;;;;5075170;28;10665;-52
2022/04/15 06:43:32;;;;;;;;;3.50;2.00;15.40;99.90;;;;;;5074655;28;10801;-40
2022/04/15 06:46:03;;;;;;;;;2.00;2.00;15.30;99.90;;;;;;5084608;28;10874;-41
2022/04/15 06:48:35;;;;;;;;;1.75;1.75;15.30;99.90;;;;;;5081207;28;10886;-51
2022/04/15 06:51:06;;;;;;;;;2.50;2.50;15.30;99.90;;;;;;5082200;28;10822;-49
2022/04/15 06:53:37;;;;;;;;;1.75;1.75;15.30;99.90;;;;;;5079258;28;10718;-41
2022/04/15 06:56:10;;;;;;;;;1.00;1.00;15.30;99.90;;;;;;5083270;28;10664;-41
2022/04/15 06:58:42;;;;;;;;;1.00;1.00;15.30;99.90;;;;;;5083606;28;10852;-51
2022/04/15 07:01:12;;;;;;;;;1.50;1.50;15.30;99.90;;;;;;5078992;28;10711;-52
2022/04/15 07:03:44;;;;;;;;;2.00;2.00;15.30;99.90;;;;;;5071259;28;10718;-49
2022/04/15 07:06:14;;;;;;;;;2.75;1.00;15.30;99.90;;;;;;5073431;28;10528;-49
2022/04/15 07:08:44;;;;;;;;;1.75;1.25;15.30;99.90;;;;;;5078901;28;11104;-42
2022/04/15 07:11:16;;;;;;;;;1.50;1.50;15.30;99.90;;;;;;5088926;28;10724;-41
2022/04/15 07:13:47;;;;;;;;;1.00;1.00;15.30;99.90;;;;;;5079497;28;10915;-40
2022/04/15 07:16:18;;;;;;;;;2.00;2.00;15.20;99.90;;;;;;5072540;28;10679;-41
2022/04/15 07:18:48;;;;;;;;;2.75;2.75;15.20;99.90;;;;;;5080814;28;10815;-51
2022/04/15 07:21:18;;;;;;;;;2.50;2.50;15.20;99.90;;;;;;5075615;28;10767;-49
2022/04/15 07:23:51;;;;;;;;;3.00;2.00;15.20;99.90;;;;;;5076512;28;10811;-52
2022/04/15 07:26:22;;;;;;;;;1.00;1.00;15.20;99.90;;;;;;5076742;28;10949;-49
2022/04/15 07:28:52;;;;;;;;;2.25;2.25;15.20;99.90;;;;;;5076614;28;10815;-47
2022/04/15 07:31:24;;;;;;;;;2.00;2.00;15.20;99.90;;;;;;5072676;28;11012;-47
2022/04/15 07:33:55;;;;;;;;;1.75;1.75;15.20;99.90;;;;;;5076866;28;10959;-48
2022/04/15 07:39:08;;;;;;;;;1.75;1.75;15.10;99.90;;;;;;5076453;27;10862;-40
2022/04/15 07:41:41;;;;;;;;;1.25;1.25;15.10;99.90;;;;;;5079498;28;11046;-41
2022/04/15 07:44:12;;;;;;;;;2.25;2.25;15.10;99.90;;;;;;5081181;28;10884;-49
2022/04/15 07:46:44;;;;;;;;;2.00;2.00;15.10;99.90;;;;;;5075658;28;10981;-49
2022/04/15 07:49:15;;;;;;;;;3.50;2.25;15.10;99.90;;;;;;5072969;28;10872;-41
2022/04/15 07:51:45;;;;;;;;;4.00;4.00;15.10;99.90;;;;;;5090661;28;11047;-40
2022/04/15 07:54:14;;;;;;;;;3.00;3.00;15.10;99.90;;;;;;5076440;28;10937;-47
2022/04/15 07:56:45;;;;;;;;;1.75;1.75;15.10;99.90;;;;;;5086955;28;11026;-47
2022/04/15 07:59:18;;;;;;;;;3.50;3.50;15.00;99.90;;;;;;5079679;28;11737;-48
2022/04/15 08:01:48;;;;;;;;;3.25;3.25;15.10;99.90;;;;;;5080938;28;10979;-50
2022/04/15 08:04:20;;;;;;;;;3.00;3.00;15.10;99.90;;;;;;5077259;28;11099;-41
2022/04/15 08:06:52;;;;;;;;;2.00;2.00;15.10;99.90;;;;;;5077842;28;11097;-41
2022/04/15 08:09:22;;;;;;;;;2.75;2.75;15.00;99.90;;;;;;5080026;28;11047;-49
2022/04/15 08:11:54;;;;;;;;;2.00;2.00;15.00;99.90;;;;;;5070494;28;11106;-49
2022/04/15 08:14:24;;;;;;;;;2.00;2.00;15.00;99.90;;;;;;5073150;28;11203;-40
2022/04/15 08:16:55;;;;;;;;;2.00;2.00;15.00;99.90;;;;;;5070735;28;11180;-41
2022/04/15 08:19:26;;;;;;;;;3.00;3.00;15.00;99.90;;;;;;5082119;28;11039;-42
2022/04/15 08:22:01;;;;;;;;;1.50;1.50;15.00;99.90;;;;;;5078650;28;11177;-41
2022/04/15 08:24:32;;;;;;;;;2.75;2.75;15.00;99.90;;;;;;5083398;28;11065;-48
2022/04/15 08:27:02;;;;;;;;;3.00;3.00;15.00;99.90;;;;;;5076801;28;11117;-51
2022/04/15 08:29:35;;;;;;;;;2.00;2.00;15.00;99.90;;;;;;5081885;28;11815;-49
2022/04/15 08:32:08;;;;;;;;;2.25;2.25;15.00;99.90;;;;;;5077559;28;11062;-49
2022/04/15 08:34:40;;;;;;;;;2.25;2.25;15.00;99.90;;;;;;5077935;28;11209;-47
2022/04/15 08:37:12;;;;;;;;;1.75;1.75;15.00;99.90;;;;;;5069195;28;11174;-48
2022/04/15 08:39:42;;;;;;;;;4.00;4.00;15.00;99.90;;;;;;5072982;28;10994;-48
2022/04/15 08:42:13;;;;;;;;;2.00;2.00;15.00;99.90;;;;;;5077409;28;13437;-48
2022/04/15 08:44:48;;;;;;;;;2.00;2.00;14.90;99.90;;;;;;5076128;27;11095;-41
2022/04/15 08:47:20;;;;;;;;;1.00;1.00;14.90;99.90;;;;;;5052639;28;11108;-40
2022/04/15 08:49:51;;;;;;;;;0.75;0.75;14.80;99.90;;;;;;5088671;28;10886;-51
2022/04/15 08:52:23;;;;;;;;;0.00;0.00;14.80;99.90;;;;;;5085921;28;11077;-49
2022/04/15 08:54:54;;;;;;;;;0.00;0.00;14.70;99.90;;;;;;5076029;27;10879;-50
2022/04/15 08:57:24;;;;;;;;;0.25;0.25;14.60;99.90;;;;;;5073978;28;10778;-50
2022/04/15 08:59:56;;;;;;;;;0.00;0.00;14.60;99.90;;;;;;5077789;28;10616;-40
2022/04/15 09:02:37;;;;;;;;;2.00;0.00;14.60;99.90;;;;;;5082118;28;11443;-43
2022/04/15 09:05:12;;;;;;;;;0.00;0.00;14.60;99.90;;;;;;5073562;28;10751;-41
2022/04/15 09:07:45;;;;;;;;;0.00;0.00;14.60;99.90;;;;;;5090549;27;10881;-40
2022/04/15 09:10:18;;;;;;;;;0.00;0.00;14.60;99.90;;;;;;5082460;28;10935;-41
2022/04/15 09:12:52;;;;;;;;;0.00;0.00;14.60;99.90;;;;;;5090845;28;10890;-40
2022/04/15 09:15:23;;;;;;;;;0.75;0.75;14.50;99.90;;;;;;5088793;28;10923;-39
2022/04/15 09:17:54;;;;;;;;;3.25;2.00;14.50;99.90;;;;;;5081827;28;11065;-39
2022/04/15 09:20:26;;;;;;;;;0.00;0.00;14.50;99.90;;;;;;5082583;28;11154;-40
2022/04/15 09:23:08;;;;;;;;;0.50;0.50;14.40;99.90;;;;;;5084472;28;10842;-48
2022/04/15 09:25:39;;;;;;;;;1.00;1.00;14.40;99.90;;;;;;5060895;28;10789;-47
2022/04/15 09:28:14;;;;;;;;;1.00;1.00;14.30;99.90;;;;;;5078206;28;11210;-41
2022/04/15 09:30:46;;;;;;;;;2.00;0.00;14.20;99.90;;;;;;5069322;28;11444;-40
2022/04/15 09:33:17;;;;;;;;;1.00;1.00;14.20;99.90;;;;;;5079789;28;11091;-49
2022/04/15 09:35:55;;;;;;;;;0.75;0.75;14.20;99.90;;;;;;5072188;28;11433;-48
2022/04/15 09:38:44;;;;;;;;;0.25;0.25;14.20;99.90;;;;;;5081940;28;11038;-50
2022/04/15 09:41:25;;;;;;;;;0.00;0.00;14.20;99.90;;;;;;5072786;28;10971;-53
2022/04/15 09:44:00;;;;;;;;;0.50;0.50;14.20;99.90;;;;;;5080521;28;11892;-48
2022/04/15 09:46:31;;;;;;;;;2.00;0.00;14.20;99.90;;;;;;5081687;28;11137;-50
2022/04/15 09:49:07;;;;;;;;;1.00;1.00;14.10;99.90;;;;;;5073758;28;11463;-51
2022/04/15 09:51:44;;;;;;;;;3.00;1.00;14.00;99.90;;;;;;5082310;28;11435;-48
2022/04/15 09:54:28;;;;;;;;;2.00;0.00;14.00;99.90;;;;;;5088064;28;11211;-51
2022/04/15 09:56:59;;;;;;;;;0.00;0.00;14.00;99.90;;;;;;5069995;28;11427;-49
2022/04/15 09:59:31;;;;;;;;;1.00;1.00;14.00;99.90;;;;;;5086100;28;11441;-40
2022/04/15 10:02:13;;;;;;;;;1.00;1.00;14.00;99.90;;;;;;5077559;28;11221;-40
2022/04/15 10:04:44;;;;;;;;;2.00;2.00;13.90;99.90;;;;;;5083650;28;12186;-52
2022/04/15 10:07:15;;;;;;;;;1.00;1.00;13.90;99.90;;;;;;5074316;28;11867;-50
2022/04/15 10:09:46;;;;;;;;;2.25;1.00;13.80;99.90;;;;;;5079409;28;11404;-50
2022/04/15 10:12:17;;;;;;;;;3.00;1.75;13.80;99.90;;;;;;5084777;28;11393;-52
2022/04/15 10:14:49;;;;;;;;;0.00;0.00;13.80;99.90;;;;;;5077448;28;11461;-50
2022/04/15 10:17:22;;;;;;;;;2.75;1.00;13.80;99.90;;;;;;5073791;28;11450;-51
2022/04/15 10:19:54;;;;;;;;;1.00;1.00;13.80;99.90;;;;;;5077917;28;11182;-51
2022/04/15 10:22:24;;;;;;;;;1.00;1.00;13.80;99.90;;;;;;5077863;28;11105;-46
2022/04/15 10:24:54;;;;;;;;;1.25;1.00;13.80;99.90;;;;;;5085506;28;11399;-39
2022/04/15 10:27:30;;;;;;;;;0.75;0.75;13.80;99.90;;;;;;5076472;28;11398;-41
2022/04/15 10:30:22;;;;;;;;;0.75;0.75;13.80;99.90;;;;;;5082061;28;11318;-41
2022/04/15 10:32:55;;;;;;;;;1.00;1.00;13.80;99.90;;;;;;5078498;28;11176;-40
2022/04/15 10:35:42;;;;;;;;;0.00;0.00;13.80;99.90;;;;;;5084387;28;11421;-39
2022/04/15 10:38:13;;;;;;;;;2.25;0.50;13.70;99.90;;;;;;5077639;28;11473;-51
2022/04/15 10:40:44;;;;;;;;;1.75;0.25;13.70;99.90;;;;;;5081428;28;11988;-50
2022/04/15 10:43:29;;;;;;;;;0.50;0.50;13.70;99.90;;;;;;5079271;28;11427;-52
2022/04/15 10:46:15;;;;;;;;;0.25;0.25;13.70;99.90;;;;;;5081666;28;11415;-50
2022/04/15 10:48:48;;;;;;;;;0.75;0.75;13.70;99.90;;;;;;5078225;28;11441;-41
2022/04/15 10:51:24;;;;;;;;;0.25;0.25;13.70;99.90;;;;;;5078490;28;11446;-41
2022/04/15 10:53:56;;;;;;;;;1.00;0.00;13.70;99.90;;;;;;5079283;28;11447;-49
2022/04/15 10:56:28;;;;;;;;;1.50;1.00;13.60;99.90;;;;;;5078102;28;11403;-48
2022/04/15 11:02:02;;;;;;;;;0.50;0.50;13.60;99.90;;;;;;5087763;28;11942;-40
2022/04/15 11:04:36;;;;;;;;;0.75;0.75;13.60;99.90;;;;;;5078534;28;12157;-40
2022/04/15 11:07:17;;;;;;;;;0.00;0.00;13.50;99.90;;;;;;5078997;28;11588;-40
2022/04/15 11:09:48;;;;;;;;;0.50;0.00;13.50;99.90;;;;;;5069161;28;11445;-40
2022/04/15 11:12:36;;;;;;;;;1.00;1.00;13.50;99.90;;;;;;5077541;28;11435;-40
2022/04/15 11:15:08;;;;;;;;;1.00;1.00;13.50;99.90;;;;;;5078024;28;11887;-48
2022/04/15 11:17:47;;;;;;;;;1.50;1.50;13.40;99.90;;;;;;5068254;28;11446;-48
2022/04/15 11:20:17;;;;;;;;;0.00;0.00;13.50;99.90;;;;;;5075967;28;11483;-40
2022/04/15 11:22:48;;;;;;;;;0.00;0.00;13.40;99.90;;;;;;5079422;28;12239;-40
2022/04/15 11:25:19;;;;;;;;;0.50;0.50;13.40;99.90;;;;;;5076280;28;11416;-40
2022/04/15 11:27:50;;;;;;;;;0.50;0.50;13.40;99.90;;;;;;5080790;28;11420;-41
2022/04/15 11:30:20;;;;;;;;;4.00;1.00;13.30;99.90;;;;;;5076627;28;11978;-40
2022/04/15 11:32:53;;;;;;;;;0.00;0.00;13.30;99.90;;;;;;5080808;28;11420;-49
2022/04/15 11:35:35;;;;;;;;;0.75;0.75;13.20;99.90;;;;;;5078015;28;11416;-48
2022/04/15 11:38:12;;;;;;;;;0.00;0.00;13.30;99.90;;;;;;5078576;28;11433;-40
2022/04/15 11:40:44;;;;;;;;;0.00;0.00;13.30;99.90;;;;;;5080550;28;11439;-40
2022/04/15 11:43:14;;;;;;;;;0.00;0.00;13.20;99.90;;;;;;5077650;28;11442;-48
2022/04/15 11:45:44;;;;;;;;;0.25;0.25;13.20;99.90;;;;;;5073017;28;11427;-50
2022/04/15 11:48:18;;;;;;;;;0.00;0.00;13.20;99.90;;;;;;5084828;28;12212;-49
2022/04/15 11:50:51;;;;;;;;;0.75;0.75;13.10;99.90;;;;;;5071714;28;12276;-50
2022/04/15 11:53:22;;;;;;;;;0.00;0.00;13.10;99.90;;;;;;5080253;28;11547;-48
2022/04/15 11:56:01;;;;;;;;;0.50;0.00;13.10;99.90;;;;;;5079110;28;11440;-49
2022/04/15 11:58:35;;;;;;;;;1.00;1.00;13.10;99.90;;;;;;5080076;28;11452;-49
2022/04/15 12:01:06;;;;;;;;;0.00;0.00;13.00;99.90;;;;;;5087430;28;11403;-49
2022/04/15 12:03:44;;;;;;;;;0.00;0.00;13.00;99.90;;;;;;5078679;28;11472;-40
2022/04/15 12:06:13;;;;;;;;;0.00;0.00;13.00;99.90;;;;;;5080811;28;11410;-39
2022/04/15 12:08:45;;;;;;;;;0.00;0.00;13.00;99.90;;;;;;5077129;28;11405;-40
2022/04/15 12:11:15;;;;;;;;;0.00;0.00;12.90;99.90;;;;;;5084783;28;11439;-40
2022/04/15 12:13:45;;;;;;;;;0.25;0.25;13.00;99.90;;;;;;5077731;28;11445;-50
2022/04/15 12:16:15;;;;;;;;;0.00;0.00;12.90;99.90;;;;;;5078272;28;11425;-50
2022/04/15 12:18:46;;;;;;;;;0.00;0.00;12.80;99.90;;;;;;5079532;28;11433;-40
2022/04/15 12:21:17;;;;;;;;;1.00;0.00;12.80;99.90;;;;;;5078295;28;11415;-41
2022/04/15 12:24:19;;;;;;;;;0.00;0.00;12.80;99.90;;;;;;5079352;28;11892;-39
2022/04/15 12:26:52;;;;;;;;;1.00;0.00;12.80;99.90;;;;;;5073475;28;11433;-40
2022/04/15 12:32:38;;;;;;;;;0.00;0.00;12.80;99.90;;;;;;5070385;28;11435;-40
2022/04/15 12:35:12;;;;;;;;;0.00;0.00;12.80;99.90;;;;;;5084519;27;11429;-39
2022/04/15 12:37:47;;;;;;;;;3.00;0.00;12.80;99.90;;;;;;5082453;28;11459;-40
2022/04/15 12:40:19;;;;;;;;;0.00;0.00;12.80;99.90;;;;;;5078536;28;11413;-40
2022/04/15 12:42:53;;;;;;;;;0.00;0.00;12.70;99.90;;;;;;5083127;28;11615;-42
2022/04/15 12:45:24;;;;;;;;;0.50;0.00;12.70;99.90;;;;;;5086676;27;11417;-42
2022/04/15 12:47:59;;;;;;;;;1.00;1.00;12.70;99.90;;;;;;5080964;28;11440;-47
2022/04/15 12:50:33;;;;;;;;;0.00;0.00;12.70;99.90;;;;;;5091090;28;11448;-50
2022/04/15 12:53:24;;;;;;;;;0.00;0.00;12.70;99.90;;;;;;5083023;28;11423;-42
2022/04/15 12:56:07;;;;;;;;;2.75;0.00;12.70;99.90;;;;;;5077945;28;11447;-40
2022/04/15 12:58:38;;;;;;;;;0.00;0.00;12.70;99.90;;;;;;5085539;28;11828;-48
2022/04/15 13:01:08;;;;;;;;;3.00;1.00;12.60;99.90;;;;;;5075574;28;13010;-49
2022/04/15 13:03:51;;;;;;;;;0.00;0.00;12.70;99.90;;;;;;5080858;28;11487;-47
2022/04/15 13:06:23;;;;;;;;;0.00;0.00;12.60;99.90;;;;;;5084926;28;11419;-48
2022/04/15 13:08:53;;;;;;;;;1.00;0.25;12.50;99.90;;;;;;5078935;28;12140;-49
2022/04/15 13:11:25;;;;;;;;;0.00;0.00;12.60;99.90;;;;;;5084454;28;11457;-51
2022/04/15 13:13:54;;;;;;;;;0.00;0.00;12.60;99.90;;;;;;5087296;28;11379;-48
2022/04/15 13:16:26;;;;;;;;;0.25;0.25;12.60;99.90;;;;;;5078826;28;11435;-48
2022/04/15 13:18:56;;;;;;;;;0.00;0.00;12.60;99.90;;;;;;5077668;28;11391;-41
2022/04/15 13:21:25;;;;;;;;;0.00;0.00;12.60;99.90;;;;;;5081438;28;11421;-40